sensor_id;sensor_type;location;lat;lon;timestamp;temperature;humidity
947;DHT22;460;48.734;9.152;2024-03-02T00:00:35;6.10;99.90
947;DHT22;460;48.734;9.152;2024-03-02T00:03:02;6.00;99.90
947;DHT22;460;48.734;9.152;2024-03-02T00:05:29;6.10;99.90
947;DHT22;460;48.734;9.152;2024-03-02T00:07:57;6.20;99.90
947;DHT22;460;48.734;9.152;2024-03-02T00:10:27;6.00;99.90
947;DHT22;460;48.734;9.152;2024-03-02T00:12:57;6.00;99.90
947;DHT22;460;48.734;9.152;2024-03-02T00:15:41;6.10;99.90
947;DHT22;460;48.734;9.152;2024-03-02T00:18:11;6.00;99.90
947;DHT22;460;48.734;9.152;2024-03-02T00:20:38;5.80;99.90
947;DHT22;460;48.734;9.152;2024-03-02T00:23:07;5.90;99.90
947;DHT22;460;48.734;9.152;2024-03-02T00:25:38;6.00;99.90
947;DHT22;460;48.734;9.152;2024-03-02T00:28:14;6.10;99.90
947;DHT22;460;48.734;9.152;2024-03-02T00:31:04;6.10;99.90
947;DHT22;460;48.734;9.152;2024-03-02T00:33:33;6.20;99.90
947;DHT22;460;48.734;9.152;2024-03-02T00:36:00;5.80;99.90
947;DHT22;460;48.734;9.152;2024-03-02T00:38:27;6.10;99.90
947;DHT22;460;48.734;9.152;2024-03-02T00:40:57;6.10;99.90
947;DHT22;460;48.734;9.152;2024-03-02T00:43:43;6.10;99.90
947;DHT22;460;48.734;9.152;2024-03-02T00:46:11;6.10;99.90
947;DHT22;460;48.734;9.152;2024-03-02T00:48:40;6.10;99.90
947;DHT22;460;48.734;9.152;2024-03-02T00:51:09;6.10;99.90
947;DHT22;460;48.734;9.152;2024-03-02T00:53:37;6.10;99.90
947;DHT22;460;48.734;9.152;2024-03-02T00:56:09;6.30;99.90
947;DHT22;460;48.734;9.152;2024-03-02T00:58:37;6.20;99.90
947;DHT22;460;48.734;9.152;2024-03-02T01:01:04;6.20;99.90
947;DHT22;460;48.734;9.152;2024-03-02T01:03:33;6.20;99.90
947;DHT22;460;48.734;9.152;2024-03-02T01:06:00;6.20;99.90
947;DHT22;460;48.734;9.152;2024-03-02T01:08:29;6.20;99.90
947;DHT22;460;48.734;9.152;2024-03-02T01:10:57;6.10;99.90
947;DHT22;460;48.734;9.152;2024-03-02T01:13:26;6.10;99.90
947;DHT22;460;48.734;9.152;2024-03-02T01:15:53;6.00;99.90
947;DHT22;460;48.734;9.152;2024-03-02T01:18:20;6.10;99.90
947;DHT22;460;48.734;9.152;2024-03-02T01:20:47;6.00;99.90
947;DHT22;460;48.734;9.152;2024-03-02T01:23:17;5.90;99.90
947;DHT22;460;48.734;9.152;2024-03-02T01:25:45;5.90;99.90
947;DHT22;460;48.734;9.152;2024-03-02T01:28:11;5.90;99.90
947;DHT22;460;48.734;9.152;2024-03-02T01:30:40;5.70;99.90
947;DHT22;460;48.734;9.152;2024-03-02T01:33:07;5.90;99.90
947;DHT22;460;48.734;9.152;2024-03-02T01:35:34;5.80;99.90
947;DHT22;460;48.734;9.152;2024-03-02T01:38:01;5.80;99.90
947;DHT22;460;48.734;9.152;2024-03-02T01:40:27;5.70;99.90
947;DHT22;460;48.734;9.152;2024-03-02T01:42:54;5.70;99.90
947;DHT22;460;48.734;9.152;2024-03-02T01:45:23;5.70;99.90
947;DHT22;460;48.734;9.152;2024-03-02T01:47:51;5.70;99.90
947;DHT22;460;48.734;9.152;2024-03-02T01:50:25;5.70;99.90
947;DHT22;460;48.734;9.152;2024-03-02T01:52:52;5.60;99.90
947;DHT22;460;48.734;9.152;2024-03-02T01:55:20;5.60;99.90
947;DHT22;460;48.734;9.152;2024-03-02T01:57:47;5.60;99.90
947;DHT22;460;48.734;9.152;2024-03-02T02:00:15;5.50;99.90
947;DHT22;460;48.734;9.152;2024-03-02T02:02:42;5.50;99.90
947;DHT22;460;48.734;9.152;2024-03-02T02:05:10;5.50;99.90
947;DHT22;460;48.734;9.152;2024-03-02T02:07:37;5.40;99.90
947;DHT22;460;48.734;9.152;2024-03-02T02:10:05;5.30;99.90
947;DHT22;460;48.734;9.152;2024-03-02T02:12:34;5.20;99.90
947;DHT22;460;48.734;9.152;2024-03-02T02:15:02;5.20;99.90
947;DHT22;460;48.734;9.152;2024-03-02T02:17:30;5.20;99.90
947;DHT22;460;48.734;9.152;2024-03-02T02:19:57;5.10;99.90
947;DHT22;460;48.734;9.152;2024-03-02T02:22:25;5.00;99.90
947;DHT22;460;48.734;9.152;2024-03-02T02:24:52;4.90;99.90
947;DHT22;460;48.734;9.152;2024-03-02T02:27:19;5.00;99.90
947;DHT22;460;48.734;9.152;2024-03-02T02:29:46;4.70;99.90
947;DHT22;460;48.734;9.152;2024-03-02T02:32:14;4.90;99.90
947;DHT22;460;48.734;9.152;2024-03-02T02:34:42;4.90;99.90
947;DHT22;460;48.734;9.152;2024-03-02T02:37:09;4.80;99.90
947;DHT22;460;48.734;9.152;2024-03-02T02:39:38;4.90;99.90
947;DHT22;460;48.734;9.152;2024-03-02T02:42:06;4.60;99.90
947;DHT22;460;48.734;9.152;2024-03-02T02:44:35;4.60;99.90
947;DHT22;460;48.734;9.152;2024-03-02T02:47:02;4.70;99.90
947;DHT22;460;48.734;9.152;2024-03-02T02:49:34;4.70;99.90
947;DHT22;460;48.734;9.152;2024-03-02T02:52:02;4.70;99.90
947;DHT22;460;48.734;9.152;2024-03-02T02:54:29;4.80;99.90
947;DHT22;460;48.734;9.152;2024-03-02T02:56:59;4.80;99.90
947;DHT22;460;48.734;9.152;2024-03-02T02:59:27;4.80;99.90
947;DHT22;460;48.734;9.152;2024-03-02T03:01:54;4.80;99.90
947;DHT22;460;48.734;9.152;2024-03-02T03:04:22;4.80;99.90
947;DHT22;460;48.734;9.152;2024-03-02T03:06:50;4.70;99.90
947;DHT22;460;48.734;9.152;2024-03-02T03:09:17;4.70;99.90
947;DHT22;460;48.734;9.152;2024-03-02T03:11:44;4.70;99.90
947;DHT22;460;48.734;9.152;2024-03-02T03:14:13;4.70;99.90
947;DHT22;460;48.734;9.152;2024-03-02T03:16:40;4.70;99.90
947;DHT22;460;48.734;9.152;2024-03-02T03:19:07;4.60;99.90
947;DHT22;460;48.734;9.152;2024-03-02T03:21:35;4.60;99.90
947;DHT22;460;48.734;9.152;2024-03-02T03:24:03;4.70;99.90
947;DHT22;460;48.734;9.152;2024-03-02T03:28:58;4.60;99.90
947;DHT22;460;48.734;9.152;2024-03-02T03:31:30;4.60;99.90
947;DHT22;460;48.734;9.152;2024-03-02T03:33:58;4.60;99.90
947;DHT22;460;48.734;9.152;2024-03-02T03:36:25;4.60;99.90
947;DHT22;460;48.734;9.152;2024-03-02T03:38:53;4.80;99.90
947;DHT22;460;48.734;9.152;2024-03-02T03:41:21;4.50;99.90
947;DHT22;460;48.734;9.152;2024-03-02T03:43:48;4.50;99.90
947;DHT22;460;48.734;9.152;2024-03-02T03:46:15;4.50;99.90
947;DHT22;460;48.734;9.152;2024-03-02T03:48:44;4.50;99.90
947;DHT22;460;48.734;9.152;2024-03-02T03:51:10;4.50;99.90
947;DHT22;460;48.734;9.152;2024-03-02T03:53:37;4.50;99.90
947;DHT22;460;48.734;9.152;2024-03-02T03:56:05;4.60;99.90
947;DHT22;460;48.734;9.152;2024-03-02T03:58:31;4.40;99.90
947;DHT22;460;48.734;9.152;2024-03-02T04:00:58;4.50;99.90
947;DHT22;460;48.734;9.152;2024-03-02T04:03:25;4.40;99.90
947;DHT22;460;48.734;9.152;2024-03-02T04:05:53;4.40;99.90
947;DHT22;460;48.734;9.152;2024-03-02T04:10:47;4.40;99.90
947;DHT22;460;48.734;9.152;2024-03-02T04:13:14;4.40;99.90
947;DHT22;460;48.734;9.152;2024-03-02T04:15:41;4.40;99.90
947;DHT22;460;48.734;9.152;2024-03-02T04:18:08;4.40;99.90
947;DHT22;460;48.734;9.152;2024-03-02T04:20:34;4.40;99.90
947;DHT22;460;48.734;9.152;2024-03-02T04:23:03;4.30;99.90
947;DHT22;460;48.734;9.152;2024-03-02T04:25:30;4.40;99.90
947;DHT22;460;48.734;9.152;2024-03-02T04:27:57;4.30;99.90
947;DHT22;460;48.734;9.152;2024-03-02T04:30:23;4.30;99.90
947;DHT22;460;48.734;9.152;2024-03-02T04:32:50;4.30;99.90
947;DHT22;460;48.734;9.152;2024-03-02T04:35:17;4.30;99.90
947;DHT22;460;48.734;9.152;2024-03-02T04:37:44;4.30;99.90
947;DHT22;460;48.734;9.152;2024-03-02T04:40:12;4.30;99.90
947;DHT22;460;48.734;9.152;2024-03-02T04:42:40;4.40;99.90
947;DHT22;460;48.734;9.152;2024-03-02T04:45:07;4.30;99.90
947;DHT22;460;48.734;9.152;2024-03-02T04:47:34;4.30;99.90
947;DHT22;460;48.734;9.152;2024-03-02T04:50:03;4.20;99.90
947;DHT22;460;48.734;9.152;2024-03-02T04:52:31;4.30;99.90
947;DHT22;460;48.734;9.152;2024-03-02T04:54:58;4.30;99.90
947;DHT22;460;48.734;9.152;2024-03-02T04:57:50;4.10;99.90
947;DHT22;460;48.734;9.152;2024-03-02T05:00:20;4.00;99.90
947;DHT22;460;48.734;9.152;2024-03-02T05:02:47;4.30;99.90
947;DHT22;460;48.734;9.152;2024-03-02T05:05:13;4.30;99.90
947;DHT22;460;48.734;9.152;2024-03-02T05:07:40;4.30;99.90
947;DHT22;460;48.734;9.152;2024-03-02T05:10:08;4.30;99.90
947;DHT22;460;48.734;9.152;2024-03-02T05:12:35;4.30;99.90
947;DHT22;460;48.734;9.152;2024-03-02T05:15:23;4.20;99.90
947;DHT22;460;48.734;9.152;2024-03-02T05:17:50;4.20;99.90
947;DHT22;460;48.734;9.152;2024-03-02T05:20:17;4.10;99.90
947;DHT22;460;48.734;9.152;2024-03-02T05:22:44;4.20;99.90
947;DHT22;460;48.734;9.152;2024-03-02T05:25:10;4.20;99.90
947;DHT22;460;48.734;9.152;2024-03-02T05:27:37;4.20;99.90
947;DHT22;460;48.734;9.152;2024-03-02T05:30:05;4.20;99.90
947;DHT22;460;48.734;9.152;2024-03-02T05:32:34;4.30;99.90
947;DHT22;460;48.734;9.152;2024-03-02T05:35:01;4.20;99.90
947;DHT22;460;48.734;9.152;2024-03-02T05:37:28;4.10;99.90
947;DHT22;460;48.734;9.152;2024-03-02T05:39:55;3.80;99.90
947;DHT22;460;48.734;9.152;2024-03-02T05:42:22;4.20;99.90
947;DHT22;460;48.734;9.152;2024-03-02T05:44:48;4.40;99.90
947;DHT22;460;48.734;9.152;2024-03-02T05:47:15;4.20;99.90
947;DHT22;460;48.734;9.152;2024-03-02T05:49:43;4.20;99.90
947;DHT22;460;48.734;9.152;2024-03-02T05:52:10;4.20;99.90
947;DHT22;460;48.734;9.152;2024-03-02T05:54:38;4.20;99.90
947;DHT22;460;48.734;9.152;2024-03-02T05:57:05;4.20;99.90
947;DHT22;460;48.734;9.152;2024-03-02T05:59:52;4.10;99.90
947;DHT22;460;48.734;9.152;2024-03-02T06:02:19;4.00;99.90
947;DHT22;460;48.734;9.152;2024-03-02T06:04:47;4.40;99.90
947;DHT22;460;48.734;9.152;2024-03-02T06:07:14;4.20;99.90
947;DHT22;460;48.734;9.152;2024-03-02T06:09:41;4.30;99.90
947;DHT22;460;48.734;9.152;2024-03-02T06:12:08;4.20;99.90
947;DHT22;460;48.734;9.152;2024-03-02T06:14:35;4.20;99.90
947;DHT22;460;48.734;9.152;2024-03-02T06:17:00;4.20;99.90
947;DHT22;460;48.734;9.152;2024-03-02T06:19:27;4.30;99.90
947;DHT22;460;48.734;9.152;2024-03-02T06:21:55;4.20;99.90
947;DHT22;460;48.734;9.152;2024-03-02T06:24:22;4.20;99.90
947;DHT22;460;48.734;9.152;2024-03-02T06:26:49;4.30;99.90
947;DHT22;460;48.734;9.152;2024-03-02T06:29:16;4.30;99.90
947;DHT22;460;48.734;9.152;2024-03-02T06:31:42;4.20;99.90
947;DHT22;460;48.734;9.152;2024-03-02T06:34:09;4.20;99.90
947;DHT22;460;48.734;9.152;2024-03-02T06:36:36;4.30;99.90
947;DHT22;460;48.734;9.152;2024-03-02T06:39:06;4.40;99.90
947;DHT22;460;48.734;9.152;2024-03-02T06:41:34;4.50;99.90
947;DHT22;460;48.734;9.152;2024-03-02T06:44:00;4.50;99.90
947;DHT22;460;48.734;9.152;2024-03-02T06:46:27;4.50;99.90
947;DHT22;460;48.734;9.152;2024-03-02T06:48:54;4.50;99.90
947;DHT22;460;48.734;9.152;2024-03-02T06:51:21;4.60;99.90
947;DHT22;460;48.734;9.152;2024-03-02T06:53:48;4.70;99.90
947;DHT22;460;48.734;9.152;2024-03-02T06:56:16;4.70;99.90
947;DHT22;460;48.734;9.152;2024-03-02T06:58:43;4.80;99.90
947;DHT22;460;48.734;9.152;2024-03-02T07:01:10;4.80;99.90
947;DHT22;460;48.734;9.152;2024-03-02T07:03:36;5.20;99.90
947;DHT22;460;48.734;9.152;2024-03-02T07:06:04;4.90;99.90
947;DHT22;460;48.734;9.152;2024-03-02T07:08:31;5.00;99.90
947;DHT22;460;48.734;9.152;2024-03-02T07:11:04;5.20;99.90
947;DHT22;460;48.734;9.152;2024-03-02T07:13:35;5.10;99.90
947;DHT22;460;48.734;9.152;2024-03-02T07:16:02;5.30;99.90
947;DHT22;460;48.734;9.152;2024-03-02T07:18:46;5.50;99.90
947;DHT22;460;48.734;9.152;2024-03-02T07:21:17;6.30;99.90
947;DHT22;460;48.734;9.152;2024-03-02T07:23:44;5.90;99.90
947;DHT22;460;48.734;9.152;2024-03-02T07:26:10;6.00;99.90
947;DHT22;460;48.734;9.152;2024-03-02T07:28:39;6.10;99.90
947;DHT22;460;48.734;9.152;2024-03-02T07:31:06;6.10;99.90
947;DHT22;460;48.734;9.152;2024-03-02T07:33:32;6.10;99.90
947;DHT22;460;48.734;9.152;2024-03-02T07:36:00;6.30;99.90
947;DHT22;460;48.734;9.152;2024-03-02T07:38:27;6.20;99.90
947;DHT22;460;48.734;9.152;2024-03-02T07:40:54;6.20;99.90
947;DHT22;460;48.734;9.152;2024-03-02T07:43:22;6.30;99.90
947;DHT22;460;48.734;9.152;2024-03-02T07:45:50;6.20;99.90
947;DHT22;460;48.734;9.152;2024-03-02T07:48:17;6.50;99.90
947;DHT22;460;48.734;9.152;2024-03-02T07:50:43;6.20;99.90
947;DHT22;460;48.734;9.152;2024-03-02T07:53:10;6.20;99.90
947;DHT22;460;48.734;9.152;2024-03-02T07:55:37;6.30;99.90
947;DHT22;460;48.734;9.152;2024-03-02T07:58:04;6.20;99.90
947;DHT22;460;48.734;9.152;2024-03-02T08:00:31;6.20;99.90
947;DHT22;460;48.734;9.152;2024-03-02T08:02:59;6.10;99.90
947;DHT22;460;48.734;9.152;2024-03-02T08:05:26;6.10;99.90
947;DHT22;460;48.734;9.152;2024-03-02T08:07:53;6.30;99.90
947;DHT22;460;48.734;9.152;2024-03-02T08:10:20;6.20;99.90
947;DHT22;460;48.734;9.152;2024-03-02T08:12:47;6.40;99.90
947;DHT22;460;48.734;9.152;2024-03-02T08:15:14;6.30;99.90
947;DHT22;460;48.734;9.152;2024-03-02T08:17:41;6.40;99.90
947;DHT22;460;48.734;9.152;2024-03-02T08:20:12;6.30;99.90
947;DHT22;460;48.734;9.152;2024-03-02T08:22:40;6.40;99.90
947;DHT22;460;48.734;9.152;2024-03-02T08:25:07;6.40;99.90
947;DHT22;460;48.734;9.152;2024-03-02T08:27:35;6.50;99.90
947;DHT22;460;48.734;9.152;2024-03-02T08:30:02;6.70;99.90
947;DHT22;460;48.734;9.152;2024-03-02T08:32:31;6.80;99.90
947;DHT22;460;48.734;9.152;2024-03-02T08:34:58;7.00;99.90
947;DHT22;460;48.734;9.152;2024-03-02T08:37:26;7.10;99.90
947;DHT22;460;48.734;9.152;2024-03-02T08:39:53;7.20;99.90
947;DHT22;460;48.734;9.152;2024-03-02T08:42:21;7.30;99.90
947;DHT22;460;48.734;9.152;2024-03-02T08:44:48;7.40;99.90
947;DHT22;460;48.734;9.152;2024-03-02T08:47:15;7.40;99.90
947;DHT22;460;48.734;9.152;2024-03-02T08:49:42;7.50;99.90
947;DHT22;460;48.734;9.152;2024-03-02T08:52:08;7.50;99.90
947;DHT22;460;48.734;9.152;2024-03-02T08:54:36;7.70;99.90
947;DHT22;460;48.734;9.152;2024-03-02T08:57:04;7.90;99.90
947;DHT22;460;48.734;9.152;2024-03-02T08:59:31;8.00;99.90
947;DHT22;460;48.734;9.152;2024-03-02T09:01:59;8.20;99.90
947;DHT22;460;48.734;9.152;2024-03-02T09:04:25;8.30;99.90
947;DHT22;460;48.734;9.152;2024-03-02T09:06:52;8.30;99.60
947;DHT22;460;48.734;9.152;2024-03-02T09:09:19;8.30;99.80
947;DHT22;460;48.734;9.152;2024-03-02T09:14:20;8.80;99.40
947;DHT22;460;48.734;9.152;2024-03-02T09:16:47;9.00;99.90
947;DHT22;460;48.734;9.152;2024-03-02T09:19:14;9.00;99.90
947;DHT22;460;48.734;9.152;2024-03-02T09:21:42;8.90;99.90
947;DHT22;460;48.734;9.152;2024-03-02T09:24:09;9.00;98.20
947;DHT22;460;48.734;9.152;2024-03-02T09:26:36;9.10;98.60
947;DHT22;460;48.734;9.152;2024-03-02T09:29:04;9.20;97.40
947;DHT22;460;48.734;9.152;2024-03-02T09:31:31;9.30;97.50
947;DHT22;460;48.734;9.152;2024-03-02T09:33:58;9.50;97.30
947;DHT22;460;48.734;9.152;2024-03-02T09:36:24;9.60;97.00
947;DHT22;460;48.734;9.152;2024-03-02T09:38:51;9.80;96.30
947;DHT22;460;48.734;9.152;2024-03-02T09:41:18;9.90;99.90
947;DHT22;460;48.734;9.152;2024-03-02T09:43:46;9.80;99.90
947;DHT22;460;48.734;9.152;2024-03-02T09:46:15;10.00;94.90
947;DHT22;460;48.734;9.152;2024-03-02T09:48:48;9.90;99.90
947;DHT22;460;48.734;9.152;2024-03-02T09:51:15;10.20;95.10
947;DHT22;460;48.734;9.152;2024-03-02T09:53:45;10.20;94.70
947;DHT22;460;48.734;9.152;2024-03-02T09:56:13;10.30;94.70
947;DHT22;460;48.734;9.152;2024-03-02T09:58:41;10.50;94.30
947;DHT22;460;48.734;9.152;2024-03-02T10:01:13;10.90;99.90
947;DHT22;460;48.734;9.152;2024-03-02T10:03:40;10.50;94.10
947;DHT22;460;48.734;9.152;2024-03-02T10:06:20;10.70;94.40
947;DHT22;460;48.734;9.152;2024-03-02T10:08:47;10.70;93.90
947;DHT22;460;48.734;9.152;2024-03-02T10:11:26;10.80;93.70
947;DHT22;460;48.734;9.152;2024-03-02T10:14:07;10.80;94.00
947;DHT22;460;48.734;9.152;2024-03-02T10:16:37;10.90;94.10
947;DHT22;460;48.734;9.152;2024-03-02T10:19:19;11.00;93.50
947;DHT22;460;48.734;9.152;2024-03-02T10:21:47;10.80;99.90
947;DHT22;460;48.734;9.152;2024-03-02T10:24:15;11.70;99.90
947;DHT22;460;48.734;9.152;2024-03-02T10:26:41;11.20;93.90
947;DHT22;460;48.734;9.152;2024-03-02T10:29:08;11.30;93.70
947;DHT22;460;48.734;9.152;2024-03-02T10:31:38;11.30;93.10
947;DHT22;460;48.734;9.152;2024-03-02T10:34:05;11.50;99.90
947;DHT22;460;48.734;9.152;2024-03-02T10:36:32;11.30;93.30
947;DHT22;460;48.734;9.152;2024-03-02T10:39:02;11.40;92.90
947;DHT22;460;48.734;9.152;2024-03-02T10:41:32;11.70;96.00
947;DHT22;460;48.734;9.152;2024-03-02T10:44:02;10.70;92.50
947;DHT22;460;48.734;9.152;2024-03-02T10:46:30;11.50;92.50
947;DHT22;460;48.734;9.152;2024-03-02T10:48:59;11.70;92.20
947;DHT22;460;48.734;9.152;2024-03-02T10:51:26;11.90;99.90
947;DHT22;460;48.734;9.152;2024-03-02T10:53:54;11.70;91.50
947;DHT22;460;48.734;9.152;2024-03-02T10:56:25;11.70;91.90
947;DHT22;460;48.734;9.152;2024-03-02T10:58:59;11.70;91.80
947;DHT22;460;48.734;9.152;2024-03-02T11:01:29;11.90;91.50
947;DHT22;460;48.734;9.152;2024-03-02T11:03:59;11.70;99.90
947;DHT22;460;48.734;9.152;2024-03-02T11:06:28;11.90;99.80
947;DHT22;460;48.734;9.152;2024-03-02T11:08:58;12.00;91.90
947;DHT22;460;48.734;9.152;2024-03-02T11:11:31;12.10;92.30
947;DHT22;460;48.734;9.152;2024-03-02T11:14:01;12.00;92.10
947;DHT22;460;48.734;9.152;2024-03-02T11:16:34;12.10;92.00
947;DHT22;460;48.734;9.152;2024-03-02T11:19:04;12.40;99.90
947;DHT22;460;48.734;9.152;2024-03-02T11:21:32;12.10;91.60
947;DHT22;460;48.734;9.152;2024-03-02T11:23:59;12.20;91.70
947;DHT22;460;48.734;9.152;2024-03-02T11:26:27;12.20;91.60
947;DHT22;460;48.734;9.152;2024-03-02T11:28:55;12.00;96.60
947;DHT22;460;48.734;9.152;2024-03-02T11:31:58;12.20;90.70
947;DHT22;460;48.734;9.152;2024-03-02T11:34:30;12.30;90.70
947;DHT22;460;48.734;9.152;2024-03-02T11:36:58;12.30;89.90
947;DHT22;460;48.734;9.152;2024-03-02T11:39:25;12.70;90.50
947;DHT22;460;48.734;9.152;2024-03-02T11:41:52;12.40;90.90
947;DHT22;460;48.734;9.152;2024-03-02T11:44:19;12.50;88.70
947;DHT22;460;48.734;9.152;2024-03-02T11:46:51;12.70;93.80
947;DHT22;460;48.734;9.152;2024-03-02T11:49:29;12.90;93.40
947;DHT22;460;48.734;9.152;2024-03-02T11:52:11;12.90;90.10
947;DHT22;460;48.734;9.152;2024-03-02T11:54:41;12.80;93.10
947;DHT22;460;48.734;9.152;2024-03-02T11:57:12;12.80;83.20
947;DHT22;460;48.734;9.152;2024-03-02T11:59:39;12.70;83.80
947;DHT22;460;48.734;9.152;2024-03-02T12:02:06;12.80;85.70
947;DHT22;460;48.734;9.152;2024-03-02T12:04:34;12.80;87.40
947;DHT22;460;48.734;9.152;2024-03-02T12:07:03;12.70;93.60
947;DHT22;460;48.734;9.152;2024-03-02T12:09:30;12.90;87.60
947;DHT22;460;48.734;9.152;2024-03-02T12:12:04;12.90;86.80
947;DHT22;460;48.734;9.152;2024-03-02T12:14:35;13.00;90.40
947;DHT22;460;48.734;9.152;2024-03-02T12:17:02;13.00;88.30
947;DHT22;460;48.734;9.152;2024-03-02T12:19:30;13.20;86.90
947;DHT22;460;48.734;9.152;2024-03-02T12:21:58;13.20;85.90
947;DHT22;460;48.734;9.152;2024-03-02T12:24:27;13.30;84.70
947;DHT22;460;48.734;9.152;2024-03-02T12:26:54;13.30;82.50
947;DHT22;460;48.734;9.152;2024-03-02T12:29:21;13.30;84.40
947;DHT22;460;48.734;9.152;2024-03-02T12:31:50;13.40;84.40
947;DHT22;460;48.734;9.152;2024-03-02T12:34:18;13.50;84.00
947;DHT22;460;48.734;9.152;2024-03-02T12:36:46;13.30;86.50
947;DHT22;460;48.734;9.152;2024-03-02T12:39:17;13.40;83.30
947;DHT22;460;48.734;9.152;2024-03-02T12:41:44;13.50;83.40
947;DHT22;460;48.734;9.152;2024-03-02T12:44:11;13.50;83.90
947;DHT22;460;48.734;9.152;2024-03-02T12:46:38;13.60;82.70
947;DHT22;460;48.734;9.152;2024-03-02T12:49:08;13.70;84.60
947;DHT22;460;48.734;9.152;2024-03-02T12:51:35;13.60;84.10
947;DHT22;460;48.734;9.152;2024-03-02T12:54:02;13.60;82.10
947;DHT22;460;48.734;9.152;2024-03-02T12:56:32;13.60;81.90
947;DHT22;460;48.734;9.152;2024-03-02T12:58:59;13.70;82.00
947;DHT22;460;48.734;9.152;2024-03-02T13:01:26;13.70;81.70
947;DHT22;460;48.734;9.152;2024-03-02T13:03:54;13.70;82.70
947;DHT22;460;48.734;9.152;2024-03-02T13:06:22;13.80;82.20
947;DHT22;460;48.734;9.152;2024-03-02T13:08:49;13.90;89.20
947;DHT22;460;48.734;9.152;2024-03-02T13:11:16;13.80;89.60
947;DHT22;460;48.734;9.152;2024-03-02T13:13:44;13.80;80.50
947;DHT22;460;48.734;9.152;2024-03-02T13:16:12;14.00;93.00
947;DHT22;460;48.734;9.152;2024-03-02T13:18:39;13.80;91.60
947;DHT22;460;48.734;9.152;2024-03-02T13:21:06;13.80;81.90
947;DHT22;460;48.734;9.152;2024-03-02T13:23:33;13.90;82.60
947;DHT22;460;48.734;9.152;2024-03-02T13:26:02;13.90;82.40
947;DHT22;460;48.734;9.152;2024-03-02T13:28:30;14.10;92.70
947;DHT22;460;48.734;9.152;2024-03-02T13:30:58;13.90;91.80
947;DHT22;460;48.734;9.152;2024-03-02T13:33:25;14.00;88.40
947;DHT22;460;48.734;9.152;2024-03-02T13:35:52;13.90;80.80
947;DHT22;460;48.734;9.152;2024-03-02T13:38:19;13.90;80.40
947;DHT22;460;48.734;9.152;2024-03-02T13:40:48;13.90;79.70
947;DHT22;460;48.734;9.152;2024-03-02T13:43:17;13.90;80.30
947;DHT22;460;48.734;9.152;2024-03-02T13:45:44;14.10;87.50
947;DHT22;460;48.734;9.152;2024-03-02T13:48:12;14.10;80.80
947;DHT22;460;48.734;9.152;2024-03-02T13:50:40;14.00;91.80
947;DHT22;460;48.734;9.152;2024-03-02T13:53:07;14.00;78.80
947;DHT22;460;48.734;9.152;2024-03-02T13:55:34;14.00;76.90
947;DHT22;460;48.734;9.152;2024-03-02T13:58:01;14.00;77.60
947;DHT22;460;48.734;9.152;2024-03-02T14:00:28;14.00;78.90
947;DHT22;460;48.734;9.152;2024-03-02T14:02:55;14.00;78.80
947;DHT22;460;48.734;9.152;2024-03-02T14:05:23;14.00;78.60
947;DHT22;460;48.734;9.152;2024-03-02T14:07:50;13.90;79.00
947;DHT22;460;48.734;9.152;2024-03-02T14:10:17;14.00;77.40
947;DHT22;460;48.734;9.152;2024-03-02T14:12:47;14.10;76.20
947;DHT22;460;48.734;9.152;2024-03-02T14:15:14;14.00;76.30
947;DHT22;460;48.734;9.152;2024-03-02T14:17:41;14.10;75.40
947;DHT22;460;48.734;9.152;2024-03-02T14:20:08;14.20;75.30
947;DHT22;460;48.734;9.152;2024-03-02T14:22:38;14.10;76.40
947;DHT22;460;48.734;9.152;2024-03-02T14:25:06;14.00;85.90
947;DHT22;460;48.734;9.152;2024-03-02T14:27:34;14.00;74.40
947;DHT22;460;48.734;9.152;2024-03-02T14:30:02;14.00;76.70
947;DHT22;460;48.734;9.152;2024-03-02T14:32:28;14.10;77.40
947;DHT22;460;48.734;9.152;2024-03-02T14:34:55;14.10;76.90
947;DHT22;460;48.734;9.152;2024-03-02T14:37:22;14.30;77.10
947;DHT22;460;48.734;9.152;2024-03-02T14:39:50;14.30;85.20
947;DHT22;460;48.734;9.152;2024-03-02T14:42:17;14.20;76.10
947;DHT22;460;48.734;9.152;2024-03-02T14:44:44;14.10;76.30
947;DHT22;460;48.734;9.152;2024-03-02T14:47:11;14.10;77.20
947;DHT22;460;48.734;9.152;2024-03-02T14:49:38;14.10;77.20
947;DHT22;460;48.734;9.152;2024-03-02T14:52:06;14.30;74.70
947;DHT22;460;48.734;9.152;2024-03-02T14:54:33;14.40;74.20
947;DHT22;460;48.734;9.152;2024-03-02T14:57:02;14.50;74.30
947;DHT22;460;48.734;9.152;2024-03-02T14:59:29;14.90;72.70
947;DHT22;460;48.734;9.152;2024-03-02T15:04:23;14.60;84.50
947;DHT22;460;48.734;9.152;2024-03-02T15:06:50;14.70;72.10
947;DHT22;460;48.734;9.152;2024-03-02T15:14:14;15.70;74.40
947;DHT22;460;48.734;9.152;2024-03-02T15:16:41;16.60;75.00
947;DHT22;460;48.734;9.152;2024-03-02T15:21:35;16.10;65.90
947;DHT22;460;48.734;9.152;2024-03-02T15:24:02;15.90;64.90
947;DHT22;460;48.734;9.152;2024-03-02T15:26:29;15.60;66.10
947;DHT22;460;48.734;9.152;2024-03-02T15:28:56;15.30;64.90
947;DHT22;460;48.734;9.152;2024-03-02T15:31:26;16.10;66.40
947;DHT22;460;48.734;9.152;2024-03-02T15:33:52;14.70;79.50
947;DHT22;460;48.734;9.152;2024-03-02T15:36:21;14.80;66.20
947;DHT22;460;48.734;9.152;2024-03-02T15:38:49;14.70;66.10
947;DHT22;460;48.734;9.152;2024-03-02T15:41:16;14.50;65.70
947;DHT22;460;48.734;9.152;2024-03-02T15:43:42;14.50;65.90
947;DHT22;460;48.734;9.152;2024-03-02T15:46:09;14.30;65.80
947;DHT22;460;48.734;9.152;2024-03-02T15:48:37;14.20;65.40
947;DHT22;460;48.734;9.152;2024-03-02T15:51:04;13.80;81.50
947;DHT22;460;48.734;9.152;2024-03-02T15:53:31;14.00;66.10
947;DHT22;460;48.734;9.152;2024-03-02T15:55:58;13.90;66.30
947;DHT22;460;48.734;9.152;2024-03-02T15:58:25;13.80;67.00
947;DHT22;460;48.734;9.152;2024-03-02T16:00:52;13.80;85.80
947;DHT22;460;48.734;9.152;2024-03-02T16:03:19;13.60;69.50
947;DHT22;460;48.734;9.152;2024-03-02T16:05:47;13.50;70.40
947;DHT22;460;48.734;9.152;2024-03-02T16:08:14;13.40;80.20
947;DHT22;460;48.734;9.152;2024-03-02T16:10:41;13.30;72.10
947;DHT22;460;48.734;9.152;2024-03-02T16:13:07;13.30;72.40
947;DHT22;460;48.734;9.152;2024-03-02T16:15:34;13.10;74.60
947;DHT22;460;48.734;9.152;2024-03-02T16:18:01;13.00;81.80
947;DHT22;460;48.734;9.152;2024-03-02T16:20:28;12.90;75.00
947;DHT22;460;48.734;9.152;2024-03-02T16:22:56;12.90;75.60
947;DHT22;460;48.734;9.152;2024-03-02T16:25:23;12.80;76.20
947;DHT22;460;48.734;9.152;2024-03-02T16:27:50;13.10;77.00
947;DHT22;460;48.734;9.152;2024-03-02T16:30:17;12.80;76.80
947;DHT22;460;48.734;9.152;2024-03-02T16:32:45;12.70;77.60
947;DHT22;460;48.734;9.152;2024-03-02T16:35:12;12.60;78.00
947;DHT22;460;48.734;9.152;2024-03-02T16:37:40;13.00;91.30
947;DHT22;460;48.734;9.152;2024-03-02T16:40:10;12.50;78.70
947;DHT22;460;48.734;9.152;2024-03-02T16:42:36;12.50;79.30
947;DHT22;460;48.734;9.152;2024-03-02T16:45:04;12.50;80.00
947;DHT22;460;48.734;9.152;2024-03-02T16:47:31;12.50;88.60
947;DHT22;460;48.734;9.152;2024-03-02T16:49:58;12.20;89.10
947;DHT22;460;48.734;9.152;2024-03-02T16:52:25;12.20;82.10
947;DHT22;460;48.734;9.152;2024-03-02T16:54:53;12.20;82.30
947;DHT22;460;48.734;9.152;2024-03-02T16:57:22;12.10;82.80
947;DHT22;460;48.734;9.152;2024-03-02T16:59:48;12.10;83.30
947;DHT22;460;48.734;9.152;2024-03-02T17:02:15;12.00;84.10
947;DHT22;460;48.734;9.152;2024-03-02T17:04:42;12.00;84.20
947;DHT22;460;48.734;9.152;2024-03-02T17:07:09;12.00;84.40